Riviere-a-Claude, Canada
Current Conditions -  °F | °C
As of 2:00 PM on Saturday 25 Oct 2014 (Local Time) from CYZV Reporting Station
Overcast Overcast  
Wind Chill: 36°   Ceiling: 3200
Heat Index: 43°   Visibility: 30mi
Dew Point: 34°   Wind: 14mph
Humidity: 70%   Direction: 130°SE
Pressure: 29.66"   Gusts: NA
Location:  49.22°N, 65.89°W
Report Text: CYZV 251800Z 13012KT 30SM BKN032 OVC230 06/01 A2966 RMK SC7CI1 SLP045
Loading
Personal Weather Stations






























Interactive Weather Map
Tropical Storm Tracking
New forecast layout! Learn more

10-Day Weather Forecast

Advertisements
Track Severe Weather on mobile